createdAt,value
2017-05-20T00:01:30.098Z,24.26
2017-05-20T00:03:59.579Z,24.90
2017-05-20T00:06:29.000Z,23.36
2017-05-20T00:08:59.355Z,23.76
2017-05-20T00:11:28.842Z,25.96
2017-05-20T00:13:58.430Z,23.68
2017-05-20T00:16:28.062Z,22.62
2017-05-20T00:18:57.567Z,22.10
2017-05-20T00:21:27.072Z,23.86
2017-05-20T00:23:56.376Z,21.88
2017-05-20T00:26:26.066Z,21.20
2017-05-20T00:28:55.488Z,21.86
2017-05-20T00:32:28.162Z,22.22
2017-05-20T00:34:57.433Z,20.44
2017-05-20T00:37:26.992Z,16.80
2017-05-20T00:39:56.695Z,18.66
2017-05-20T00:42:26.406Z,18.04
2017-05-20T00:44:55.694Z,17.24
2017-05-20T00:47:25.009Z,17.34
2017-05-20T00:49:54.517Z,18.00
2017-05-20T00:52:23.878Z,17.16
2017-05-20T00:54:53.392Z,16.66
2017-05-20T00:57:22.916Z,16.14
2017-05-20T00:59:52.421Z,16.34
2017-05-20T01:02:22.027Z,15.94
2017-05-20T01:04:51.758Z,15.64
2017-05-20T01:07:21.560Z,14.20
2017-05-20T01:09:51.318Z,14.14
2017-05-20T01:12:20.688Z,15.54
2017-05-20T01:14:50.197Z,15.52
2017-05-20T01:17:19.698Z,17.24
2017-05-20T01:19:49.106Z,16.90
2017-05-20T01:22:18.508Z,16.96
2017-05-20T01:24:47.793Z,16.30
2017-05-20T01:27:18.550Z,16.28
2017-05-20T01:29:48.261Z,16.42
2017-05-20T01:32:17.560Z,19.02
2017-05-20T01:34:46.861Z,18.72
2017-05-20T01:37:16.469Z,19.70
2017-05-20T01:39:45.712Z,18.72
2017-05-20T01:42:15.381Z,20.54
2017-05-20T01:44:44.932Z,21.42
2017-05-20T01:47:14.500Z,19.92
2017-05-20T01:49:43.984Z,20.96
2017-05-20T01:52:13.563Z,20.32
2017-05-20T01:54:43.104Z,21.24
2017-05-20T01:57:12.593Z,19.10
2017-05-20T01:59:42.110Z,17.30
2017-05-20T02:02:11.625Z,17.68
2017-05-20T02:04:40.939Z,18.92
2017-05-20T02:07:10.831Z,16.12
2017-05-20T02:09:40.359Z,17.46
2017-05-20T02:12:09.663Z,18.38
2017-05-20T02:14:39.231Z,19.42
2017-05-20T02:17:08.671Z,21.54
2017-05-20T02:19:38.205Z,20.36
2017-05-20T02:22:07.487Z,19.42
2017-05-20T02:24:36.987Z,20.74
2017-05-20T02:27:06.289Z,18.66
2017-05-20T02:29:35.591Z,19.08
2017-05-20T02:32:05.509Z,20.50
2017-05-20T02:34:34.809Z,22.18
2017-05-20T02:37:04.110Z,21.72
2017-05-20T02:39:33.411Z,21.92
2017-05-20T02:42:02.917Z,22.34
2017-05-20T02:44:32.425Z,21.14
2017-05-20T02:47:01.929Z,23.22
2017-05-20T02:49:31.845Z,23.10
2017-05-20T02:52:01.564Z,23.00
2017-05-20T02:54:30.857Z,24.86
2017-05-20T02:57:00.145Z,24.28
2017-05-20T02:59:29.872Z,24.06
2017-05-20T03:01:59.260Z,25.12
2017-05-20T03:04:29.300Z,24.28
2017-05-20T03:06:59.003Z,24.06
2017-05-20T03:09:28.313Z,23.58
2017-05-20T03:11:57.546Z,25.56
2017-05-20T03:14:26.826Z,24.90
2017-05-20T03:16:56.045Z,23.68
2017-05-20T03:19:25.293Z,25.82
2017-05-20T03:21:54.815Z,26.78
2017-05-20T03:24:24.041Z,25.24
2017-05-20T03:26:53.419Z,27.44
2017-05-20T03:29:22.923Z,26.68
2017-05-20T03:31:52.222Z,27.80
2017-05-20T03:34:21.593Z,29.64
2017-05-20T03:36:51.645Z,28.48
2017-05-20T03:39:20.946Z,29.50
2017-05-20T03:41:50.250Z,28.06
2017-05-20T03:44:19.743Z,27.36
2017-05-20T03:46:49.058Z,26.38
2017-05-20T03:49:18.281Z,29.86
2017-05-20T03:51:47.761Z,31.32
2017-05-20T03:54:17.560Z,31.52
2017-05-20T03:56:47.165Z,28.38
2017-05-20T03:59:16.671Z,30.40
2017-05-20T04:01:46.165Z,31.50
2017-05-20T04:04:15.561Z,32.50
2017-05-20T04:06:44.977Z,37.66
2017-05-20T04:09:14.409Z,34.68
2017-05-20T04:11:43.983Z,34.88
2017-05-20T04:14:13.674Z,33.08
2017-05-20T04:16:43.127Z,37.24
2017-05-20T04:19:12.435Z,35.10
2017-05-20T04:21:42.359Z,31.68
2017-05-20T04:24:11.858Z,37.80
2017-05-20T04:26:41.362Z,36.34
2017-05-20T04:29:10.869Z,38.66
2017-05-20T04:31:40.173Z,39.40
2017-05-20T04:34:09.673Z,35.46
2017-05-20T04:36:39.594Z,38.18
2017-05-20T04:39:08.894Z,39.12
2017-05-20T04:41:38.196Z,38.84
2017-05-20T04:44:07.481Z,36.14
2017-05-20T04:46:37.006Z,39.30
2017-05-20T04:49:06.728Z,41.38
2017-05-20T04:51:36.631Z,41.42
2017-05-20T04:54:05.905Z,41.22
2017-05-20T04:56:35.235Z,41.46
2017-05-20T04:59:04.592Z,41.20
2017-05-20T05:01:34.021Z,40.50
2017-05-20T05:04:03.343Z,43.22
2017-05-20T05:06:32.614Z,38.88
2017-05-20T05:09:01.857Z,41.20
2017-05-20T05:11:31.092Z,44.20
2017-05-20T05:14:00.349Z,46.02
2017-05-20T05:16:30.058Z,47.86
2017-05-20T05:18:59.359Z,43.38
2017-05-20T05:21:28.852Z,45.54
2017-05-20T05:23:58.168Z,45.08
2017-05-20T05:26:27.464Z,46.34
2017-05-20T05:28:56.731Z,48.26
2017-05-20T05:31:26.057Z,44.92
2017-05-20T05:33:55.773Z,47.34
2017-05-20T05:36:25.091Z,38.04
2017-05-20T05:38:54.578Z,46.14
2017-05-20T05:41:24.091Z,45.48
2017-05-20T05:43:53.604Z,42.44
2017-05-20T05:46:22.907Z,42.24
2017-05-20T05:48:52.205Z,46.48
2017-05-20T05:51:21.489Z,45.36
2017-05-20T05:53:51.013Z,45.82
2017-05-20T05:56:20.522Z,39.90
2017-05-20T05:58:50.024Z,43.34
2017-05-20T06:01:19.535Z,42.76
2017-05-20T06:03:48.836Z,39.06
2017-05-20T06:06:18.752Z,38.72
2017-05-20T06:08:48.259Z,40.66
2017-05-20T06:11:17.542Z,40.02
2017-05-20T06:13:47.472Z,39.78
2017-05-20T06:16:16.761Z,39.60
2017-05-20T06:18:46.900Z,40.22
2017-05-20T06:21:16.386Z,38.06
2017-05-20T06:23:46.113Z,37.16
2017-05-20T06:26:15.415Z,37.88
2017-05-20T06:28:44.715Z,37.60
2017-05-20T06:31:14.017Z,36.06
2017-05-20T06:33:43.311Z,36.42
2017-05-20T06:36:12.678Z,36.54
2017-05-20T06:38:42.128Z,35.54
2017-05-20T06:41:11.431Z,35.98
2017-05-20T06:43:41.124Z,33.94
2017-05-20T06:46:11.244Z,36.26
2017-05-20T06:48:40.549Z,34.94
2017-05-20T06:51:10.069Z,33.36
2017-05-20T06:53:39.413Z,33.34
2017-05-20T06:56:08.884Z,31.26
2017-05-20T06:58:38.176Z,31.94
2017-05-20T07:01:07.471Z,33.44
2017-05-20T07:03:36.988Z,30.92
2017-05-20T07:06:06.492Z,29.90
2017-05-20T07:08:35.997Z,29.78
2017-05-20T07:11:05.913Z,30.68
2017-05-20T07:13:35.425Z,30.22
2017-05-20T07:16:04.829Z,30.92
2017-05-20T07:18:34.227Z,29.70
2017-05-20T07:21:03.528Z,29.38
2017-05-20T07:23:32.829Z,29.72
2017-05-20T07:26:02.747Z,29.20
2017-05-20T07:28:32.042Z,30.12
2017-05-20T07:31:01.558Z,27.66
2017-05-20T07:33:31.047Z,29.80
2017-05-20T07:36:00.566Z,29.68
2017-05-20T07:38:30.075Z,30.82
2017-05-20T07:40:59.375Z,29.56
2017-05-20T07:43:28.677Z,27.56
2017-05-20T07:45:57.979Z,25.60
2017-05-20T07:48:27.280Z,27.92
2017-05-20T07:52:26.693Z,25.74
2017-05-20T07:54:55.996Z,24.88
2017-05-20T07:57:25.911Z,23.44
2017-05-20T07:59:55.418Z,28.48
2017-05-20T08:02:30.444Z,24.54
2017-05-20T08:05:00.169Z,24.76
2017-05-20T08:07:29.658Z,24.66
2017-05-20T08:09:58.975Z,23.14
2017-05-20T08:12:28.683Z,26.40
2017-05-20T08:14:58.399Z,25.42
2017-05-20T08:17:27.695Z,23.36
2017-05-20T08:19:57.208Z,22.42
2017-05-20T08:22:30.093Z,24.46
2017-05-20T08:24:59.890Z,23.46
2017-05-20T08:27:29.617Z,25.12
2017-05-20T08:29:59.528Z,24.74
2017-05-20T08:32:29.035Z,23.70
2017-05-20T08:34:58.338Z,22.48
2017-05-20T08:37:27.638Z,21.98
2017-05-20T08:39:57.275Z,24.20
2017-05-20T08:42:27.069Z,53.98
2017-05-20T08:44:56.474Z,24.34
2017-05-20T08:47:25.701Z,21.72
2017-05-20T08:49:55.377Z,20.76
2017-05-20T08:52:24.673Z,20.36
2017-05-20T08:54:53.979Z,21.28
2017-05-20T08:57:23.489Z,20.98
2017-05-20T08:59:52.773Z,19.82
2017-05-20T09:02:22.708Z,19.60
2017-05-20T09:04:52.005Z,19.54
2017-05-20T09:07:21.408Z,19.92
2017-05-20T09:09:50.812Z,19.76
2017-05-20T09:12:20.314Z,20.46
2017-05-20T09:14:49.615Z,18.46
2017-05-20T09:17:18.846Z,18.70
2017-05-20T09:19:48.535Z,18.84
2017-05-20T09:22:18.134Z,19.32
2017-05-20T09:24:47.631Z,17.36
2017-05-20T09:27:16.943Z,17.84
2017-05-20T09:29:46.244Z,15.14
2017-05-20T09:32:15.545Z,17.16
2017-05-20T09:34:45.039Z,20.66
2017-05-20T09:37:14.339Z,18.00
2017-05-20T09:39:43.850Z,19.72
2017-05-20T09:42:13.160Z,15.52
2017-05-20T09:44:45.961Z,17.50
2017-05-20T09:47:16.267Z,15.90
2017-05-20T09:49:45.774Z,14.70
2017-05-20T09:52:15.078Z,11.48
2017-05-20T09:54:44.586Z,12.06
2017-05-20T09:57:14.091Z,12.26
2017-05-20T09:59:43.678Z,11.44
2017-05-20T10:02:13.723Z,9.92
2017-05-20T10:04:43.010Z,10.32
2017-05-20T11:22:23.304Z,8.70
2017-05-20T11:24:53.226Z,8.06
2017-05-20T11:40:12.375Z,7.00
2017-05-20T11:42:42.292Z,7.90
2017-05-20T11:45:12.363Z,6.78
2017-05-20T11:47:42.150Z,7.72
2017-05-20T11:50:12.802Z,7.14
2017-05-20T11:52:42.564Z,7.74
2017-05-20T11:55:12.247Z,7.28
2017-05-20T11:57:41.988Z,7.08
2017-05-20T12:00:12.314Z,6.94
2017-05-20T12:02:42.631Z,6.86
2017-05-20T12:05:13.015Z,6.94
2017-05-20T12:07:42.797Z,7.80
2017-05-20T12:10:13.062Z,6.90
2017-05-20T12:12:43.161Z,8.56
2017-05-20T12:15:13.213Z,7.50
2017-05-20T12:17:43.156Z,7.58
2017-05-20T12:20:13.529Z,8.24
2017-05-20T12:22:43.961Z,7.76
2017-05-20T12:25:13.799Z,7.68
2017-05-20T12:27:44.244Z,9.00
2017-05-20T12:30:15.344Z,6.66
2017-05-20T12:32:45.198Z,6.28
2017-05-20T12:35:15.238Z,7.78
2017-05-20T12:37:45.825Z,8.54
2017-05-20T12:40:16.007Z,8.26
2017-05-20T12:42:45.940Z,6.62
2017-05-20T12:45:15.981Z,6.48
2017-05-20T12:47:45.711Z,6.12
2017-05-20T12:50:16.512Z,7.44
2017-05-20T12:52:46.274Z,6.28
2017-05-20T12:55:16.008Z,5.90
2017-05-20T12:57:46.519Z,6.08
2017-05-20T13:00:17.427Z,5.74
2017-05-20T13:02:47.595Z,6.72
2017-05-20T13:05:17.352Z,5.50
2017-05-20T13:07:47.614Z,4.80
2017-05-20T13:10:17.531Z,5.08
2017-05-20T13:12:47.299Z,5.14
2017-05-20T13:15:17.173Z,4.44
2017-05-20T13:17:46.971Z,4.20
2017-05-20T13:20:17.196Z,3.72
2017-05-20T13:22:47.081Z,3.66
2017-05-20T13:25:16.963Z,4.42
2017-05-20T13:27:47.352Z,2.50
2017-05-20T13:30:17.514Z,3.00
2017-05-20T13:32:47.388Z,3.40
2017-05-20T13:35:17.633Z,3.92
2017-05-20T13:37:47.469Z,4.18
2017-05-20T13:40:17.487Z,3.86
2017-05-20T13:42:46.981Z,4.12
2017-05-20T13:45:17.290Z,4.42
2017-05-20T13:47:54.158Z,4.16
2017-05-20T13:50:26.479Z,4.60
2017-05-20T13:52:57.061Z,4.54
2017-05-20T13:55:28.093Z,4.48
2017-05-20T13:57:57.834Z,5.16
2017-05-20T14:00:29.675Z,4.54
2017-05-20T14:02:59.467Z,4.48
2017-05-20T14:05:30.317Z,5.12
2017-05-20T14:08:00.560Z,5.32
2017-05-20T14:10:31.383Z,4.30
2017-05-20T14:13:01.409Z,5.90
2017-05-20T14:15:31.066Z,10.24
2017-05-20T14:18:02.404Z,7.58
2017-05-20T14:20:32.205Z,5.80
2017-05-20T14:23:02.123Z,11.26
2017-05-20T14:25:31.961Z,5.14
2017-05-20T14:28:01.954Z,3.88
2017-05-20T14:30:31.659Z,4.38
2017-05-20T14:33:02.364Z,4.66
2017-05-20T14:35:33.004Z,5.02
2017-05-20T14:38:03.024Z,4.10
2017-05-20T14:40:33.479Z,5.68
2017-05-20T14:43:03.445Z,5.36
2017-05-20T14:45:33.404Z,4.48
2017-05-20T14:48:05.423Z,5.22
2017-05-20T14:50:35.773Z,4.40
2017-05-20T14:53:06.416Z,4.50
2017-05-20T14:55:36.561Z,4.84
2017-05-20T14:58:07.668Z,4.80
2017-05-20T15:00:41.085Z,5.66
2017-05-20T15:03:10.777Z,4.94
2017-05-20T15:05:40.933Z,4.14
2017-05-20T15:08:11.166Z,4.88
2017-05-20T15:10:41.284Z,4.72
2017-05-20T15:13:11.121Z,5.54
2017-05-20T15:15:41.641Z,4.38
2017-05-20T15:18:11.674Z,5.60
2017-05-20T15:20:42.057Z,4.86
2017-05-20T15:23:12.474Z,4.00
2017-05-20T15:25:43.090Z,4.54
2017-05-20T15:28:17.995Z,3.46
2017-05-20T15:30:52.383Z,4.08
2017-05-20T15:33:22.399Z,4.28
2017-05-20T15:35:52.544Z,4.20
2017-05-20T15:38:22.518Z,4.10
2017-05-20T15:40:52.353Z,4.00
2017-05-20T15:43:22.242Z,3.86
2017-05-20T15:45:51.941Z,4.18
2017-05-20T15:48:21.912Z,4.82
2017-05-20T15:50:52.291Z,4.78
2017-05-20T15:53:22.488Z,3.62
2017-05-20T15:55:52.210Z,4.58
2017-05-20T15:58:22.282Z,4.46
2017-05-20T16:00:52.205Z,4.52
2017-05-20T16:03:22.243Z,4.92
2017-05-20T16:05:52.017Z,5.24
2017-05-20T16:08:22.133Z,4.58
2017-05-20T16:10:53.581Z,5.14
2017-05-20T16:13:23.550Z,5.04
2017-05-20T16:15:53.423Z,5.20
2017-05-20T16:18:23.093Z,5.22
2017-05-20T16:20:52.971Z,5.08
2017-05-20T16:23:22.714Z,5.12
2017-05-20T16:25:52.570Z,4.46
2017-05-20T16:28:23.487Z,5.00
2017-05-20T16:30:54.012Z,4.36
2017-05-20T16:33:24.002Z,6.22
2017-05-20T16:35:54.030Z,5.38
2017-05-20T16:38:23.782Z,5.28
2017-05-20T16:40:53.486Z,4.90
2017-05-20T16:43:24.820Z,4.32
2017-05-20T16:45:55.257Z,5.00
2017-05-20T16:48:25.183Z,4.22
2017-05-20T16:50:55.205Z,4.02
2017-05-20T16:53:24.976Z,4.46
2017-05-20T16:55:54.797Z,4.20
2017-05-20T16:58:25.023Z,4.24
2017-05-20T17:00:55.353Z,5.14
2017-05-20T17:03:25.364Z,4.18
2017-05-20T17:05:55.088Z,3.62
2017-05-20T17:08:25.433Z,4.40
2017-05-20T17:10:55.148Z,3.78
2017-05-20T17:13:25.117Z,5.28
2017-05-20T17:15:55.044Z,5.74
2017-05-20T17:18:25.072Z,5.24
2017-05-20T17:20:54.986Z,5.60
2017-05-20T17:23:25.215Z,4.52
2017-05-20T17:25:55.085Z,4.18
2017-05-20T17:28:24.849Z,4.80
2017-05-20T17:30:54.746Z,5.42
2017-05-20T17:33:24.977Z,4.74
2017-05-20T17:35:54.665Z,4.72
2017-05-20T17:38:24.713Z,5.30
2017-05-20T17:40:54.655Z,4.28
2017-05-20T17:43:24.665Z,4.22
2017-05-20T17:45:54.594Z,4.38
2017-05-20T17:48:24.889Z,4.98
2017-05-20T17:50:54.608Z,4.32
2017-05-20T17:53:24.901Z,3.98
2017-05-20T17:55:55.234Z,4.60
2017-05-20T17:58:24.947Z,4.62
2017-05-20T18:00:54.777Z,3.76
2017-05-20T18:03:24.990Z,4.56
2017-05-20T18:05:54.944Z,4.20
2017-05-20T18:08:24.824Z,4.14
2017-05-20T18:10:54.643Z,4.00
2017-05-20T18:13:24.548Z,4.24
2017-05-20T18:15:54.774Z,4.32
2017-05-20T18:18:25.303Z,4.20
2017-05-20T18:20:55.096Z,4.46
2017-05-20T18:23:25.341Z,4.30
2017-05-20T18:25:55.018Z,4.34
2017-05-20T18:28:24.982Z,3.58
2017-05-20T18:30:54.692Z,4.10
2017-05-20T18:33:24.387Z,4.50
2017-05-20T18:35:54.825Z,4.50
2017-05-20T18:38:25.086Z,3.68
2017-05-20T18:40:54.914Z,4.10
2017-05-20T18:43:24.926Z,5.06
2017-05-20T18:45:54.834Z,4.78
2017-05-20T18:48:24.496Z,4.68
2017-05-20T18:50:54.217Z,4.92
2017-05-20T18:53:24.945Z,3.46
2017-05-20T18:55:55.577Z,5.08
2017-05-20T18:58:26.042Z,4.86
2017-05-20T19:00:56.757Z,4.88
2017-05-20T19:03:27.371Z,5.06
2017-05-20T19:05:57.125Z,5.10
2017-05-20T19:08:27.412Z,5.94
2017-05-20T19:10:57.384Z,6.40
2017-05-20T19:13:27.441Z,5.66
2017-05-20T19:15:57.441Z,6.54
2017-05-20T19:18:27.315Z,6.94
2017-05-20T19:20:57.431Z,6.24
2017-05-20T19:23:28.132Z,6.58
2017-05-20T19:25:58.538Z,6.26
2017-05-20T19:28:28.406Z,6.72
2017-05-20T19:30:59.272Z,6.38
2017-05-20T19:33:29.215Z,6.40
2017-05-20T19:35:59.148Z,6.92
2017-05-20T19:38:29.016Z,7.02
2017-05-20T19:40:58.872Z,6.14
2017-05-20T19:43:28.908Z,6.42
2017-05-20T19:45:58.808Z,7.92
2017-05-20T19:48:29.772Z,6.50
2017-05-20T19:50:59.619Z,7.74
2017-05-20T19:53:29.554Z,15.14
2017-05-20T19:55:59.528Z,9.12
2017-05-20T19:58:29.666Z,10.48
2017-05-20T20:00:59.741Z,9.60
2017-05-20T20:03:29.656Z,10.86
2017-05-20T20:05:59.440Z,8.68
2017-05-20T20:08:29.382Z,9.36
2017-05-20T20:10:59.813Z,8.60
2017-05-20T20:13:30.104Z,9.62
2017-05-20T20:15:59.867Z,9.14
2017-05-20T20:18:29.606Z,9.84
2017-05-20T20:20:59.749Z,8.62
2017-05-20T20:23:30.823Z,9.80
2017-05-20T20:26:00.532Z,9.66
2017-05-20T20:28:30.672Z,9.96
2017-05-20T20:31:01.075Z,10.20
2017-05-20T20:33:31.453Z,10.04
2017-05-20T20:36:01.570Z,9.96
2017-05-20T20:38:31.484Z,10.32
2017-05-20T20:41:01.146Z,10.92
2017-05-20T20:43:30.690Z,10.80
2017-05-20T20:46:00.513Z,11.52
2017-05-20T20:48:30.691Z,11.08
2017-05-20T20:51:00.765Z,10.72
2017-05-20T20:53:30.985Z,11.26
2017-05-20T20:56:01.209Z,12.60
2017-05-20T20:58:30.891Z,11.84
2017-05-20T21:01:01.179Z,11.74
2017-05-20T21:03:31.154Z,12.16
2017-05-20T21:06:01.444Z,10.90
2017-05-20T21:08:31.336Z,11.84
2017-05-20T21:11:01.305Z,12.00
2017-05-20T21:13:31.190Z,11.88
2017-05-20T21:16:01.455Z,11.38
2017-05-20T21:18:31.381Z,15.00
2017-05-20T21:21:03.116Z,14.66
2017-05-20T21:23:33.022Z,12.96
2017-05-20T21:26:03.038Z,11.24
2017-05-20T21:28:32.882Z,12.78
2017-05-20T21:31:02.716Z,14.44
2017-05-20T21:33:32.810Z,17.28
2017-05-20T21:36:03.369Z,18.72
2017-05-20T21:38:33.883Z,14.76
2017-05-20T21:41:04.879Z,14.34
2017-05-20T21:43:34.846Z,12.10
2017-05-20T21:46:04.936Z,13.26
2017-05-20T21:48:34.738Z,17.46
2017-05-20T21:51:04.855Z,17.12
2017-05-20T21:53:34.992Z,16.86
2017-05-20T21:56:04.794Z,18.68
2017-05-20T21:58:35.103Z,16.84
2017-05-20T22:01:05.418Z,16.32
2017-05-20T22:03:37.073Z,14.84
2017-05-20T22:06:07.356Z,16.12
2017-05-20T22:08:37.362Z,17.46
2017-05-20T22:11:07.435Z,17.20
2017-05-20T22:13:37.928Z,16.06
2017-05-20T22:16:07.937Z,16.44
2017-05-20T22:18:38.423Z,19.34
2017-05-20T22:21:08.456Z,17.18
2017-05-20T22:23:38.746Z,17.68
2017-05-20T22:26:09.883Z,17.50
2017-05-20T22:28:39.689Z,17.28
2017-05-20T22:31:09.886Z,17.26
2017-05-20T22:33:40.069Z,18.60
2017-05-20T22:36:10.072Z,18.90
2017-05-20T22:38:40.645Z,16.96
2017-05-20T22:41:10.370Z,17.96
2017-05-20T22:43:40.166Z,18.02
2017-05-20T22:46:09.908Z,18.52
2017-05-20T22:48:39.765Z,17.94
2017-05-20T22:51:12.646Z,18.60
2017-05-20T22:53:43.497Z,19.64
2017-05-20T22:56:14.139Z,18.16
2017-05-20T22:58:46.076Z,16.78
2017-05-20T23:01:16.365Z,17.78
2017-05-20T23:03:46.745Z,16.74
2017-05-20T23:06:17.076Z,17.64
2017-05-20T23:08:47.098Z,18.62
2017-05-20T23:11:16.804Z,18.10
2017-05-20T23:13:47.531Z,18.60
2017-05-20T23:16:18.071Z,17.62
2017-05-20T23:18:48.389Z,19.80
2017-05-20T23:21:18.274Z,17.46
2017-05-20T23:23:48.603Z,16.96
2017-05-20T23:26:18.850Z,18.42
2017-05-20T23:28:49.544Z,17.48
2017-05-20T23:31:19.640Z,17.40
2017-05-20T23:33:50.476Z,18.20
2017-05-20T23:36:20.346Z,17.40
2017-05-20T23:38:50.191Z,17.84
2017-05-20T23:41:20.386Z,17.86
2017-05-20T23:43:50.181Z,17.90
2017-05-20T23:46:20.102Z,16.08
2017-05-20T23:48:50.242Z,18.86
2017-05-20T23:51:19.937Z,19.44
2017-05-20T23:53:49.708Z,17.52
2017-05-20T23:56:20.428Z,19.22
2017-05-20T23:58:51.031Z,17.02
